createdAt,value
2018-11-14T00:00:26.076Z,15.90
2018-11-14T00:02:55.016Z,16.13
2018-11-14T00:05:23.472Z,12.30
2018-11-14T00:07:51.951Z,20.10
2018-11-14T00:10:20.621Z,20.40
2018-11-14T00:12:48.957Z,17.87
2018-11-14T00:15:19.642Z,13.33
2018-11-14T00:17:48.722Z,24.33
2018-11-14T00:20:17.227Z,15.17
2018-11-14T00:22:46.677Z,12.50
2018-11-14T00:25:15.091Z,13.67
2018-11-14T00:27:43.662Z,17.83
2018-11-14T00:30:17.493Z,16.23
2018-11-14T00:32:45.797Z,16.73
2018-11-14T00:35:14.709Z,16.43
2018-11-14T00:37:43.538Z,11.77
2018-11-14T00:40:13.254Z,12.63
2018-11-14T00:42:42.130Z,15.33
2018-11-14T00:45:12.403Z,17.50
2018-11-14T00:47:41.153Z,18.80
2018-11-14T00:50:10.446Z,16.40
2018-11-14T00:52:38.810Z,18.40
2018-11-14T00:55:09.333Z,13.43
2018-11-14T00:57:37.729Z,15.53
2018-11-14T01:00:09.194Z,12.57
2018-11-14T01:02:38.206Z,14.83
2018-11-14T01:05:07.563Z,13.93
2018-11-14T01:07:36.056Z,15.93
2018-11-14T01:10:06.291Z,13.53
2018-11-14T01:12:34.651Z,15.70
2018-11-14T01:15:03.078Z,17.77
2018-11-14T01:17:31.498Z,16.10
2018-11-14T01:19:59.878Z,15.90
2018-11-14T01:22:28.242Z,16.67
2018-11-14T01:24:56.599Z,13.57
2018-11-14T01:27:24.989Z,12.73
2018-11-14T01:29:53.390Z,15.87
2018-11-14T01:32:21.777Z,15.87
2018-11-14T01:34:50.170Z,14.33
2018-11-14T01:37:18.557Z,15.60
2018-11-14T01:39:46.919Z,15.93
2018-11-14T01:42:15.313Z,13.77
2018-11-14T01:44:43.682Z,15.40
2018-11-14T01:47:12.057Z,13.67
2018-11-14T01:49:40.420Z,14.23
2018-11-14T01:52:08.802Z,14.10
2018-11-14T01:54:37.166Z,15.87
2018-11-14T01:57:05.775Z,19.20
2018-11-14T01:59:34.130Z,18.43
2018-11-14T02:02:02.531Z,16.70
2018-11-14T02:04:30.875Z,16.60
2018-11-14T02:06:59.252Z,17.17
2018-11-14T02:09:27.614Z,16.53
2018-11-14T02:11:56.002Z,16.77
2018-11-14T02:14:24.365Z,18.90
2018-11-14T02:16:52.773Z,19.87
2018-11-14T02:19:21.157Z,16.77
2018-11-14T02:21:49.533Z,14.47
2018-11-14T02:24:17.923Z,16.03
2018-11-14T02:26:46.290Z,15.57
2018-11-14T02:29:14.671Z,14.83
2018-11-14T02:31:43.065Z,17.50
2018-11-14T02:34:11.415Z,18.23
2018-11-14T02:36:39.813Z,15.53
2018-11-14T02:39:08.400Z,14.70
2018-11-14T02:41:36.778Z,17.10
2018-11-14T02:44:05.384Z,16.33
2018-11-14T02:46:33.768Z,14.83
2018-11-14T02:49:02.120Z,16.67
2018-11-14T02:51:30.775Z,17.00
2018-11-14T02:53:59.172Z,14.70
2018-11-14T02:56:27.525Z,15.70
2018-11-14T02:58:55.877Z,21.57
2018-11-14T03:01:24.259Z,17.10
2018-11-14T03:03:52.695Z,19.30
2018-11-14T03:06:21.078Z,17.33
2018-11-14T03:08:49.443Z,17.57
2018-11-14T03:11:17.822Z,18.87
2018-11-14T03:13:46.170Z,18.73
2018-11-14T03:16:14.567Z,19.43
2018-11-14T03:18:42.967Z,18.40
2018-11-14T03:21:11.354Z,23.03
2018-11-14T03:23:39.723Z,26.57
2018-11-14T03:26:08.156Z,23.83
2018-11-14T03:28:36.540Z,29.63
2018-11-14T03:31:05.383Z,24.70
2018-11-14T03:33:33.793Z,26.33
2018-11-14T03:36:07.639Z,22.67
2018-11-14T03:38:36.067Z,27.87
2018-11-14T03:41:04.543Z,24.70
2018-11-14T03:43:32.963Z,33.00
2018-11-14T03:46:01.363Z,26.17
2018-11-14T03:48:29.786Z,22.93
2018-11-14T03:50:58.189Z,25.90
2018-11-14T03:53:26.653Z,20.80
2018-11-14T03:55:55.259Z,24.00
2018-11-14T03:58:23.705Z,22.97
2018-11-14T04:00:52.284Z,24.70
2018-11-14T04:03:20.685Z,27.43
2018-11-14T04:05:49.094Z,28.47
2018-11-14T04:08:17.500Z,28.80
2018-11-14T04:10:45.900Z,26.30
2018-11-14T04:13:14.357Z,25.67
2018-11-14T04:15:42.788Z,27.07
2018-11-14T04:18:11.198Z,28.57
2018-11-14T04:20:39.635Z,25.07
2018-11-14T04:23:08.057Z,21.73
2018-11-14T04:25:36.393Z,20.60
2018-11-14T04:28:04.764Z,27.03
2018-11-14T04:30:33.110Z,23.47
2018-11-14T04:33:01.471Z,26.37
2018-11-14T04:35:29.803Z,27.40
2018-11-14T04:37:58.181Z,24.17
2018-11-14T04:40:26.539Z,22.13
2018-11-14T04:42:54.923Z,19.63
2018-11-14T04:45:24.460Z,24.60
2018-11-14T04:47:52.932Z,20.73
2018-11-14T04:50:25.141Z,24.40
2018-11-14T04:52:53.905Z,26.73
2018-11-14T04:55:23.443Z,52.40
2018-11-14T04:57:51.807Z,42.50
2018-11-14T05:00:21.307Z,31.03
2018-11-14T05:02:50.101Z,26.53
2018-11-14T05:05:19.695Z,38.07
2018-11-14T05:07:48.078Z,30.40
2018-11-14T05:10:18.902Z,31.80
2018-11-14T05:12:47.739Z,29.33
2018-11-14T05:15:17.521Z,53.13
2018-11-14T05:17:46.510Z,24.37
2018-11-14T05:20:16.233Z,74.87
2018-11-14T05:22:44.947Z,94.37
2018-11-14T05:25:13.510Z,37.97
2018-11-14T05:27:42.168Z,27.33
2018-11-14T05:30:12.998Z,37.23
2018-11-14T05:32:41.891Z,34.27
2018-11-14T05:35:11.336Z,34.87
2018-11-14T05:37:40.118Z,34.97
2018-11-14T05:40:11.042Z,38.97
2018-11-14T05:42:40.032Z,39.93
2018-11-14T05:45:10.399Z,61.80
2018-11-14T05:47:38.791Z,50.33
2018-11-14T05:50:09.989Z,47.57
2018-11-14T05:52:38.558Z,90.97
2018-11-14T05:55:07.250Z,59.50
2018-11-14T05:57:35.555Z,64.57
2018-11-14T06:00:04.230Z,66.23
2018-11-14T06:02:32.598Z,121.07
2018-11-14T06:05:01.292Z,90.50
2018-11-14T06:07:29.674Z,79.47
2018-11-14T06:09:58.074Z,78.10
2018-11-14T06:12:26.440Z,127.87
2018-11-14T06:14:54.834Z,89.30
2018-11-14T06:17:23.233Z,102.00
2018-11-14T06:19:51.634Z,86.43
2018-11-14T06:22:20.001Z,79.63
2018-11-14T06:24:48.566Z,79.73
2018-11-14T06:27:16.971Z,80.50
2018-11-14T06:29:45.467Z,71.23
2018-11-14T06:32:14.019Z,59.57
2018-11-14T06:34:42.389Z,66.20
2018-11-14T06:37:10.749Z,66.10
2018-11-14T06:39:39.124Z,89.47
2018-11-14T06:42:07.525Z,80.97
2018-11-14T06:44:35.958Z,57.17
2018-11-14T06:47:04.429Z,34.13
2018-11-14T06:49:32.825Z,57.77
2018-11-14T06:52:01.205Z,72.03
2018-11-14T06:54:29.599Z,20.13
2018-11-14T06:56:57.977Z,24.63
2018-11-14T06:59:26.472Z,51.37
2018-11-14T07:01:54.778Z,53.30
2018-11-14T07:04:23.944Z,22.17
2018-11-14T07:06:53.126Z,21.80
2018-11-14T07:09:22.475Z,23.67
2018-11-14T07:11:52.232Z,19.10
2018-11-14T07:14:20.652Z,24.40
2018-11-14T07:16:49.092Z,23.50
2018-11-14T07:19:17.488Z,18.67
2018-11-14T07:21:45.996Z,17.27
2018-11-14T07:24:14.397Z,25.73
2018-11-14T07:26:42.845Z,20.17
2018-11-14T07:29:11.195Z,19.87
2018-11-14T07:31:39.611Z,33.43
2018-11-14T07:34:08.014Z,21.73
2018-11-14T07:36:36.401Z,39.77
2018-11-14T07:39:07.341Z,31.00
2018-11-14T07:41:37.282Z,25.67
2018-11-14T07:44:06.137Z,22.23
2018-11-14T07:46:35.071Z,25.37
2018-11-14T07:49:03.597Z,23.53
2018-11-14T07:51:32.079Z,21.60
2018-11-14T07:54:00.584Z,26.00
2018-11-14T07:56:29.046Z,27.57
2018-11-14T07:58:57.474Z,27.37
2018-11-14T08:01:25.956Z,24.47
2018-11-14T08:03:54.330Z,25.33
2018-11-14T08:06:22.723Z,19.07
2018-11-14T08:08:51.114Z,16.90
2018-11-14T08:11:19.486Z,19.83
2018-11-14T08:13:48.915Z,22.47
2018-11-14T08:16:17.368Z,18.63
2018-11-14T08:18:45.847Z,20.53
2018-11-14T08:21:14.210Z,21.27
2018-11-14T08:23:42.635Z,17.33
2018-11-14T08:26:11.050Z,18.70
2018-11-14T08:28:39.511Z,16.23
2018-11-14T08:31:07.963Z,17.20
2018-11-14T08:33:36.459Z,21.13
2018-11-14T08:36:05.154Z,17.43
2018-11-14T08:38:33.574Z,17.80
2018-11-14T08:41:01.970Z,21.80
2018-11-14T08:43:30.375Z,17.80
2018-11-14T08:45:58.779Z,18.33
2018-11-14T08:48:27.232Z,18.80
2018-11-14T08:50:56.182Z,19.00
2018-11-14T08:53:24.604Z,16.70
2018-11-14T08:55:53.043Z,24.43
2018-11-14T08:58:21.470Z,22.00
2018-11-14T09:00:49.886Z,28.10
2018-11-14T09:03:18.317Z,21.83
2018-11-14T09:05:46.860Z,20.07
2018-11-14T09:08:15.331Z,19.30
2018-11-14T09:10:43.752Z,22.77
2018-11-14T09:13:12.988Z,20.30
2018-11-14T09:15:41.707Z,20.03
2018-11-14T09:18:10.271Z,20.40
2018-11-14T09:20:38.828Z,18.53
2018-11-14T09:23:07.407Z,19.13
2018-11-14T09:25:36.199Z,18.43
2018-11-14T09:28:04.900Z,18.37
2018-11-14T09:30:33.482Z,20.17
2018-11-14T09:33:01.975Z,16.77
2018-11-14T09:35:30.358Z,20.90
2018-11-14T09:38:00.255Z,31.53
2018-11-14T09:40:29.394Z,40.27
2018-11-14T09:42:57.802Z,56.03
2018-11-14T09:45:28.669Z,61.80
2018-11-14T09:47:57.470Z,65.77
2018-11-14T09:50:27.312Z,62.80
2018-11-14T09:52:57.212Z,65.57
2018-11-14T09:55:25.570Z,71.43
2018-11-14T09:57:53.986Z,73.20
2018-11-14T10:00:37.096Z,70.33
2018-11-14T10:03:11.916Z,57.70
2018-11-14T10:05:40.332Z,62.60
2018-11-14T10:08:08.755Z,64.80
2018-11-14T10:10:37.162Z,70.60
2018-11-14T10:13:05.929Z,68.67
2018-11-14T10:15:34.405Z,66.27
2018-11-14T10:18:02.781Z,65.90
2018-11-14T10:20:31.160Z,62.00
2018-11-14T10:22:59.508Z,57.57
2018-11-14T10:25:27.941Z,52.97
2018-11-14T10:27:56.352Z,52.63
2018-11-14T10:30:26.008Z,49.53
2018-11-14T10:32:54.741Z,41.40
2018-11-14T10:35:23.106Z,37.67
2018-11-14T10:37:51.535Z,33.37
2018-11-14T10:40:22.470Z,38.53
2018-11-14T10:42:50.935Z,36.37
2018-11-14T10:45:20.447Z,35.90
2018-11-14T10:47:48.783Z,34.77
2018-11-14T10:50:19.629Z,34.90
2018-11-14T10:52:48.029Z,33.77
2018-11-14T10:55:17.031Z,35.90
2018-11-14T10:57:45.434Z,41.07
2018-11-14T11:00:20.544Z,39.00
2018-11-14T11:02:54.290Z,35.67
2018-11-14T11:05:35.163Z,39.27
2018-11-14T11:08:09.505Z,42.63
2018-11-14T11:10:43.065Z,38.50
2018-11-14T11:13:15.764Z,43.97
2018-11-14T11:15:49.762Z,43.60
2018-11-14T11:18:19.127Z,44.57
2018-11-14T11:20:47.523Z,40.17
2018-11-14T11:23:15.933Z,44.43
2018-11-14T11:25:44.299Z,44.47
2018-11-14T11:28:12.658Z,45.83
2018-11-14T11:30:41.101Z,42.93
2018-11-14T11:33:09.558Z,43.17
2018-11-14T11:35:37.953Z,42.50
2018-11-14T11:38:06.486Z,40.20
2018-11-14T11:40:35.200Z,42.90
2018-11-14T11:43:04.552Z,44.93
2018-11-14T11:45:33.573Z,48.57
2018-11-14T11:48:02.150Z,46.27
2018-11-14T11:50:30.833Z,46.87
2018-11-14T11:52:59.481Z,43.37
2018-11-14T11:55:27.841Z,39.47
2018-11-14T11:57:56.817Z,41.20
2018-11-14T12:00:25.337Z,41.73
2018-11-14T12:02:53.550Z,49.77
2018-11-14T12:05:21.902Z,50.67
2018-11-14T12:07:50.355Z,50.43
2018-11-14T12:10:18.711Z,53.93
2018-11-14T12:12:47.143Z,61.27
2018-11-14T12:15:15.677Z,46.40
2018-11-14T12:17:44.461Z,53.67
2018-11-14T12:20:14.264Z,57.40
2018-11-14T12:22:43.088Z,59.97
2018-11-14T12:25:13.534Z,71.43
2018-11-14T12:27:42.283Z,58.40
2018-11-14T12:30:13.000Z,39.83
2018-11-14T12:32:41.718Z,34.77
2018-11-14T12:35:12.436Z,28.73
2018-11-14T12:37:40.995Z,35.47
2018-11-14T12:40:10.582Z,40.67
2018-11-14T12:42:39.180Z,41.13
2018-11-14T12:45:09.114Z,37.90
2018-11-14T12:47:37.670Z,42.20
2018-11-14T12:50:07.063Z,41.03
2018-11-14T12:52:35.531Z,42.37
2018-11-14T12:55:04.023Z,31.20
2018-11-14T12:57:33.072Z,31.73
2018-11-14T13:00:01.530Z,32.80
2018-11-14T13:02:29.926Z,39.67
2018-11-14T13:04:58.407Z,35.23
2018-11-14T13:07:26.810Z,33.87
2018-11-14T13:09:55.167Z,33.47
2018-11-14T13:12:23.559Z,41.90
2018-11-14T13:14:51.949Z,45.10
2018-11-14T13:17:20.435Z,55.13
2018-11-14T13:19:48.822Z,33.63
2018-11-14T13:22:17.475Z,37.07
2018-11-14T13:24:45.850Z,32.23
2018-11-14T13:27:14.302Z,52.80
2018-11-14T13:29:42.670Z,51.67
2018-11-14T13:32:11.099Z,32.37
2018-11-14T13:34:39.514Z,30.30
2018-11-14T13:37:07.931Z,34.37
2018-11-14T13:39:36.288Z,29.33
2018-11-14T13:42:04.956Z,24.20
2018-11-14T13:44:33.363Z,28.77
2018-11-14T13:47:01.734Z,27.23
2018-11-14T13:49:30.255Z,31.63
2018-11-14T13:51:58.592Z,28.50
2018-11-14T13:54:27.120Z,32.23
2018-11-14T13:56:55.602Z,35.93
2018-11-14T13:59:24.002Z,38.40
2018-11-14T14:01:52.377Z,35.40
2018-11-14T14:04:21.007Z,34.13
2018-11-14T14:06:49.369Z,40.40
2018-11-14T14:09:17.808Z,36.23
2018-11-14T14:11:46.177Z,35.30
2018-11-14T14:14:16.059Z,32.70
2018-11-14T14:16:45.129Z,35.27
2018-11-14T14:19:14.183Z,33.10
2018-11-14T14:21:42.575Z,39.73
2018-11-14T14:24:11.147Z,44.93
2018-11-14T14:26:40.075Z,41.90
2018-11-14T14:29:08.989Z,39.90
2018-11-14T14:31:37.623Z,49.10
2018-11-14T14:34:06.978Z,44.60
2018-11-14T14:36:35.419Z,32.17
2018-11-14T14:39:05.861Z,39.70
2018-11-14T14:41:34.309Z,48.93
2018-11-14T14:44:02.742Z,41.40
2018-11-14T14:46:31.134Z,46.33
2018-11-14T14:48:59.666Z,38.20
2018-11-14T14:51:28.017Z,38.57
2018-11-14T14:53:56.510Z,35.83
2018-11-14T14:56:25.207Z,39.77
2018-11-14T14:58:53.575Z,47.47
2018-11-14T15:01:21.964Z,43.23
2018-11-14T15:03:50.406Z,53.93
2018-11-14T15:06:19.278Z,61.73
2018-11-14T15:08:47.674Z,63.37
2018-11-14T15:11:16.078Z,51.83
2018-11-14T15:13:44.481Z,38.87
2018-11-14T15:16:15.909Z,41.93
2018-11-14T15:18:44.778Z,36.67
2018-11-14T15:21:13.247Z,40.93
2018-11-14T15:23:41.747Z,42.27
2018-11-14T15:26:10.156Z,44.70
2018-11-14T15:28:38.614Z,36.10
2018-11-14T15:31:07.010Z,43.33
2018-11-14T15:33:35.486Z,47.67
2018-11-14T15:36:03.979Z,41.80
2018-11-14T15:38:32.303Z,49.77
2018-11-14T15:41:00.770Z,57.07
2018-11-14T15:43:29.286Z,60.10
2018-11-14T15:45:57.683Z,53.90
2018-11-14T15:48:26.096Z,60.47
2018-11-14T15:50:54.483Z,52.20
2018-11-14T15:53:22.888Z,73.03
2018-11-14T15:55:51.352Z,68.00
2018-11-14T15:58:20.019Z,69.00
2018-11-14T16:00:48.459Z,69.60
2018-11-14T16:03:16.880Z,116.47
2018-11-14T16:05:45.407Z,53.37
2018-11-14T16:08:13.720Z,84.40
2018-11-14T16:10:42.181Z,65.43
2018-11-14T16:13:10.610Z,48.23
2018-11-14T16:15:39.049Z,49.03
2018-11-14T16:18:07.530Z,43.17
2018-11-14T16:20:35.901Z,73.03
2018-11-14T16:23:04.356Z,53.57
2018-11-14T16:25:32.747Z,68.57
2018-11-14T16:28:02.263Z,51.17
2018-11-14T16:30:33.606Z,73.97
2018-11-14T16:33:03.413Z,53.10
2018-11-14T16:35:31.839Z,67.27
2018-11-14T16:38:00.249Z,65.27
2018-11-14T16:40:30.014Z,41.07
2018-11-14T16:42:59.707Z,58.63
2018-11-14T16:45:28.133Z,54.47
2018-11-14T16:47:57.219Z,40.47
2018-11-14T16:50:25.880Z,46.93
2018-11-14T16:52:54.435Z,84.37
2018-11-14T16:55:23.279Z,45.83
2018-11-14T16:57:52.522Z,47.10
2018-11-14T17:00:23.403Z,49.67
2018-11-14T17:02:51.788Z,78.47
2018-11-14T17:05:20.765Z,72.00
2018-11-14T17:07:49.252Z,66.67
2018-11-14T17:10:19.042Z,49.90
2018-11-14T17:12:48.619Z,62.73
2018-11-14T17:15:19.270Z,41.17
2018-11-14T17:17:47.728Z,52.80
2018-11-14T17:20:17.056Z,55.93
2018-11-14T17:22:46.177Z,68.17
2018-11-14T17:25:15.685Z,51.97
2018-11-14T17:27:44.678Z,98.23
2018-11-14T17:30:16.078Z,59.67
2018-11-14T17:32:44.666Z,77.07
2018-11-14T17:35:13.874Z,62.50
2018-11-14T17:37:43.263Z,55.40
2018-11-14T17:40:24.516Z,71.50
2018-11-14T17:42:53.521Z,61.33
2018-11-14T17:45:24.249Z,82.73
2018-11-14T17:47:53.298Z,61.67
2018-11-14T17:50:23.945Z,52.60
2018-11-14T17:52:53.397Z,43.57
2018-11-14T17:55:22.472Z,43.10
2018-11-14T17:57:50.857Z,35.77
2018-11-14T18:00:23.656Z,86.23
2018-11-14T18:02:52.262Z,77.60
2018-11-14T18:05:23.013Z,38.00
2018-11-14T18:07:52.286Z,62.13
2018-11-14T18:10:21.902Z,44.70
2018-11-14T18:12:51.181Z,55.27
2018-11-14T18:15:19.787Z,57.47
2018-11-14T18:17:50.095Z,41.17
2018-11-14T18:20:19.927Z,39.70
2018-11-14T18:22:48.894Z,43.53
2018-11-14T18:25:17.293Z,41.63
2018-11-14T18:27:45.685Z,39.17
2018-11-14T18:30:16.816Z,51.57
2018-11-14T18:32:45.152Z,41.17
2018-11-14T18:35:14.855Z,51.03
2018-11-14T18:37:44.002Z,47.13
2018-11-14T18:40:15.295Z,46.87
2018-11-14T18:42:43.730Z,42.33
2018-11-14T18:45:16.416Z,46.43
2018-11-14T18:47:45.385Z,44.30
2018-11-14T18:50:14.603Z,42.63
2018-11-14T18:52:43.571Z,46.60
2018-11-14T18:55:13.291Z,43.77
2018-11-14T18:57:41.976Z,47.23
2018-11-14T19:00:14.102Z,45.20
2018-11-14T19:02:43.026Z,39.57
2018-11-14T19:05:11.850Z,42.70
2018-11-14T19:07:40.415Z,42.07
2018-11-14T19:10:11.298Z,38.13
2018-11-14T19:12:40.328Z,39.60
2018-11-14T19:15:10.730Z,39.80
2018-11-14T19:17:39.255Z,37.83
2018-11-14T19:20:09.262Z,37.33
2018-11-14T19:22:37.657Z,33.40
2018-11-14T19:25:07.620Z,33.90
2018-11-14T19:27:36.100Z,39.67
2018-11-14T19:30:06.222Z,36.17
2018-11-14T19:32:34.624Z,42.73
2018-11-14T19:35:03.056Z,53.93
2018-11-14T19:37:31.418Z,41.00
2018-11-14T19:39:59.882Z,44.20
2018-11-14T19:42:28.309Z,50.53
2018-11-14T19:44:56.750Z,49.50
2018-11-14T19:47:25.165Z,55.23
2018-11-14T19:49:53.553Z,47.57
2018-11-14T19:52:21.951Z,52.00
2018-11-14T19:54:50.396Z,57.87
2018-11-14T19:57:18.897Z,58.03
2018-11-14T19:59:47.293Z,57.77
2018-11-14T20:02:15.855Z,54.30
2018-11-14T20:04:44.132Z,54.10
2018-11-14T20:07:12.575Z,53.33
2018-11-14T20:09:40.966Z,56.90
2018-11-14T20:12:09.363Z,53.10
2018-11-14T20:14:37.802Z,52.13
2018-11-14T20:17:06.475Z,51.20
2018-11-14T20:19:34.937Z,52.57
2018-11-14T20:22:03.353Z,50.10
2018-11-14T20:24:31.735Z,46.37
2018-11-14T20:27:00.296Z,43.97
2018-11-14T20:29:29.160Z,42.67
2018-11-14T20:31:57.566Z,37.17
2018-11-14T20:34:25.991Z,50.23
2018-11-14T20:36:54.394Z,45.70
2018-11-14T20:39:22.763Z,42.83
2018-11-14T20:41:51.338Z,50.00
2018-11-14T20:44:19.714Z,48.13
2018-11-14T20:46:48.133Z,79.57
2018-11-14T20:49:16.566Z,44.83
2018-11-14T20:51:45.432Z,42.13
2018-11-14T20:54:13.827Z,42.27
2018-11-14T20:56:42.261Z,44.60
2018-11-14T20:59:10.842Z,49.90
2018-11-14T21:01:39.547Z,44.60
2018-11-14T21:04:07.921Z,41.37
2018-11-14T21:06:36.320Z,43.20
2018-11-14T21:09:07.311Z,38.97
2018-11-14T21:11:35.716Z,36.57
2018-11-14T21:14:04.178Z,35.37
2018-11-14T21:16:32.592Z,30.47
2018-11-14T21:19:00.990Z,27.17
2018-11-14T21:21:29.497Z,20.70
2018-11-14T21:23:58.026Z,20.77
2018-11-14T21:26:26.391Z,23.60
2018-11-14T21:28:54.767Z,22.87
2018-11-14T21:31:23.145Z,22.87
2018-11-14T21:33:51.510Z,21.17
2018-11-14T21:36:20.006Z,26.57
2018-11-14T21:38:48.369Z,22.93
2018-11-14T21:41:16.712Z,22.47
2018-11-14T21:43:45.068Z,26.27
2018-11-14T21:46:13.402Z,25.27
2018-11-14T21:48:41.791Z,22.10
2018-11-14T21:51:10.144Z,25.60
2018-11-14T21:53:38.511Z,27.83
2018-11-14T21:56:06.862Z,21.03
2018-11-14T21:58:35.238Z,22.13
2018-11-14T22:01:03.621Z,21.77
2018-11-14T22:03:32.164Z,20.37
2018-11-14T22:06:00.552Z,21.03
2018-11-14T22:08:28.925Z,22.63
2018-11-14T22:10:57.330Z,22.80
2018-11-14T22:13:25.719Z,23.13
2018-11-14T22:15:54.123Z,22.53
2018-11-14T22:18:22.524Z,22.27
2018-11-14T22:20:50.908Z,22.57
2018-11-14T22:23:19.285Z,21.87
2018-11-14T22:25:48.101Z,23.70
2018-11-14T22:28:16.533Z,24.30
2018-11-14T22:30:44.946Z,23.53
2018-11-14T22:33:13.387Z,23.03
2018-11-14T22:35:41.780Z,21.00
2018-11-14T22:38:10.150Z,25.07
2018-11-14T22:40:38.531Z,27.33
2018-11-14T22:43:06.921Z,23.90
2018-11-14T22:45:35.270Z,27.40
2018-11-14T22:48:03.670Z,26.20
2018-11-14T22:50:32.120Z,22.97
2018-11-14T22:53:00.529Z,26.17
2018-11-14T22:55:28.885Z,28.73
2018-11-14T22:57:57.233Z,32.97
2018-11-14T23:00:29.398Z,25.23
2018-11-14T23:02:58.949Z,25.07
2018-11-14T23:05:27.461Z,21.73
2018-11-14T23:07:56.640Z,22.00
2018-11-14T23:10:25.562Z,20.67
2018-11-14T23:12:53.938Z,21.53
2018-11-14T23:15:23.047Z,22.03
2018-11-14T23:17:52.035Z,19.63
2018-11-14T23:20:20.696Z,21.40
2018-11-14T23:22:49.674Z,19.57
2018-11-14T23:25:18.500Z,20.50
2018-11-14T23:27:48.067Z,25.77
2018-11-14T23:30:17.281Z,26.03
2018-11-14T23:32:46.771Z,26.03
2018-11-14T23:35:19.591Z,25.43
2018-11-14T23:37:49.061Z,26.73
2018-11-14T23:40:17.497Z,25.93
2018-11-14T23:42:45.884Z,20.17
2018-11-14T23:45:15.349Z,20.70
2018-11-14T23:47:44.522Z,20.27
2018-11-14T23:50:14.697Z,18.83
2018-11-14T23:52:44.346Z,18.47
2018-11-14T23:55:12.958Z,19.10
2018-11-14T23:57:41.311Z,16.60
